sensor_id;sensor_type;location;lat;lon;timestamp;temperature;humidity
33007;DHT22;19361;51.598;7.650;2024-01-15T00:02:02;4.30;75.20
33007;DHT22;19361;51.598;7.650;2024-01-15T00:07:04;4.30;75.20
33007;DHT22;19361;51.598;7.650;2024-01-15T00:12:05;4.30;75.30
33007;DHT22;19361;51.598;7.650;2024-01-15T00:17:06;4.30;75.30
33007;DHT22;19361;51.598;7.650;2024-01-15T00:22:06;4.40;75.30
33007;DHT22;19361;51.598;7.650;2024-01-15T00:27:07;4.40;75.30
33007;DHT22;19361;51.598;7.650;2024-01-15T00:32:08;4.30;75.20
33007;DHT22;19361;51.598;7.650;2024-01-15T00:37:08;4.40;75.30
33007;DHT22;19361;51.598;7.650;2024-01-15T00:42:09;4.40;75.30
33007;DHT22;19361;51.598;7.650;2024-01-15T00:47:10;4.40;75.30
33007;DHT22;19361;51.598;7.650;2024-01-15T00:52:10;4.40;75.30
33007;DHT22;19361;51.598;7.650;2024-01-15T00:57:11;4.40;75.30
33007;DHT22;19361;51.598;7.650;2024-01-15T01:02:12;4.40;75.30
33007;DHT22;19361;51.598;7.650;2024-01-15T01:07:12;4.40;75.40
33007;DHT22;19361;51.598;7.650;2024-01-15T01:12:13;4.40;75.30
33007;DHT22;19361;51.598;7.650;2024-01-15T01:17:14;4.50;75.40
33007;DHT22;19361;51.598;7.650;2024-01-15T01:22:14;4.50;75.40
33007;DHT22;19361;51.598;7.650;2024-01-15T01:27:15;4.50;75.30
33007;DHT22;19361;51.598;7.650;2024-01-15T01:32:16;4.50;75.30
33007;DHT22;19361;51.598;7.650;2024-01-15T01:37:16;4.50;75.30
33007;DHT22;19361;51.598;7.650;2024-01-15T01:42:17;4.50;75.30
33007;DHT22;19361;51.598;7.650;2024-01-15T01:47:18;4.50;75.30
33007;DHT22;19361;51.598;7.650;2024-01-15T01:52:19;4.50;75.30
33007;DHT22;19361;51.598;7.650;2024-01-15T01:57:20;4.50;75.30
33007;DHT22;19361;51.598;7.650;2024-01-15T02:02:21;4.50;75.30
33007;DHT22;19361;51.598;7.650;2024-01-15T02:07:21;4.50;75.30
33007;DHT22;19361;51.598;7.650;2024-01-15T02:12:23;4.60;75.30
33007;DHT22;19361;51.598;7.650;2024-01-15T02:17:23;4.50;75.20
33007;DHT22;19361;51.598;7.650;2024-01-15T02:22:24;4.60;75.30
33007;DHT22;19361;51.598;7.650;2024-01-15T02:27:25;4.60;75.20
33007;DHT22;19361;51.598;7.650;2024-01-15T02:32:25;4.60;75.20
33007;DHT22;19361;51.598;7.650;2024-01-15T02:37:26;4.60;75.10
33007;DHT22;19361;51.598;7.650;2024-01-15T02:42:27;4.60;75.10
33007;DHT22;19361;51.598;7.650;2024-01-15T02:47:27;4.60;75.10
33007;DHT22;19361;51.598;7.650;2024-01-15T02:52:28;4.60;75.10
33007;DHT22;19361;51.598;7.650;2024-01-15T02:57:28;4.60;74.90
33007;DHT22;19361;51.598;7.650;2024-01-15T03:02:29;4.60;74.90
33007;DHT22;19361;51.598;7.650;2024-01-15T03:07:31;4.60;74.80
33007;DHT22;19361;51.598;7.650;2024-01-15T03:12:32;4.60;74.70
33007;DHT22;19361;51.598;7.650;2024-01-15T03:17:33;4.60;74.70
33007;DHT22;19361;51.598;7.650;2024-01-15T03:22:34;4.50;74.70
33007;DHT22;19361;51.598;7.650;2024-01-15T03:27:34;4.60;74.70
33007;DHT22;19361;51.598;7.650;2024-01-15T03:32:35;4.60;74.70
33007;DHT22;19361;51.598;7.650;2024-01-15T03:37:36;4.50;74.50
33007;DHT22;19361;51.598;7.650;2024-01-15T03:42:36;4.50;74.50
33007;DHT22;19361;51.598;7.650;2024-01-15T03:47:37;4.60;74.50
33007;DHT22;19361;51.598;7.650;2024-01-15T03:52:37;4.60;74.60
33007;DHT22;19361;51.598;7.650;2024-01-15T03:57:38;4.60;74.50
33007;DHT22;19361;51.598;7.650;2024-01-15T04:02:39;4.50;74.30
33007;DHT22;19361;51.598;7.650;2024-01-15T04:07:39;4.50;74.20
33007;DHT22;19361;51.598;7.650;2024-01-15T04:12:40;4.50;74.30
33007;DHT22;19361;51.598;7.650;2024-01-15T04:17:41;4.60;74.40
33007;DHT22;19361;51.598;7.650;2024-01-15T04:22:41;4.50;74.20
33007;DHT22;19361;51.598;7.650;2024-01-15T04:27:44;4.50;74.10
33007;DHT22;19361;51.598;7.650;2024-01-15T04:32:44;4.50;74.00
33007;DHT22;19361;51.598;7.650;2024-01-15T04:37:45;4.50;74.00
33007;DHT22;19361;51.598;7.650;2024-01-15T04:42:46;4.50;74.20
33007;DHT22;19361;51.598;7.650;2024-01-15T04:47:46;4.50;74.40
33007;DHT22;19361;51.598;7.650;2024-01-15T04:52:47;4.50;74.40
33007;DHT22;19361;51.598;7.650;2024-01-15T04:57:48;4.50;74.40
33007;DHT22;19361;51.598;7.650;2024-01-15T05:02:48;4.60;74.60
33007;DHT22;19361;51.598;7.650;2024-01-15T05:07:49;4.60;74.50
33007;DHT22;19361;51.598;7.650;2024-01-15T05:12:49;4.60;74.40
33007;DHT22;19361;51.598;7.650;2024-01-15T05:17:50;4.60;74.40
33007;DHT22;19361;51.598;7.650;2024-01-15T05:22:51;4.60;74.30
33007;DHT22;19361;51.598;7.650;2024-01-15T05:27:51;4.70;74.20
33007;DHT22;19361;51.598;7.650;2024-01-15T05:32:52;4.70;74.20
33007;DHT22;19361;51.598;7.650;2024-01-15T05:37:53;4.70;74.20
33007;DHT22;19361;51.598;7.650;2024-01-15T05:42:53;4.70;74.10
33007;DHT22;19361;51.598;7.650;2024-01-15T05:47:54;4.70;74.00
33007;DHT22;19361;51.598;7.650;2024-01-15T05:52:56;4.70;74.10
33007;DHT22;19361;51.598;7.650;2024-01-15T05:57:56;4.70;74.10
33007;DHT22;19361;51.598;7.650;2024-01-15T06:02:57;4.70;74.10
33007;DHT22;19361;51.598;7.650;2024-01-15T06:07:58;4.70;74.20
33007;DHT22;19361;51.598;7.650;2024-01-15T06:12:58;4.70;74.20
33007;DHT22;19361;51.598;7.650;2024-01-15T06:17:59;4.70;74.20
33007;DHT22;19361;51.598;7.650;2024-01-15T06:23:00;4.80;74.20
33007;DHT22;19361;51.598;7.650;2024-01-15T06:28:00;4.80;74.10
33007;DHT22;19361;51.598;7.650;2024-01-15T06:33:01;4.80;74.10
33007;DHT22;19361;51.598;7.650;2024-01-15T06:38:02;4.80;74.00
33007;DHT22;19361;51.598;7.650;2024-01-15T06:43:03;4.80;74.00
33007;DHT22;19361;51.598;7.650;2024-01-15T06:48:04;4.80;74.00
33007;DHT22;19361;51.598;7.650;2024-01-15T06:53:05;4.80;74.10
33007;DHT22;19361;51.598;7.650;2024-01-15T06:58:06;4.80;74.50
33007;DHT22;19361;51.598;7.650;2024-01-15T07:03:06;4.80;74.00
33007;DHT22;19361;51.598;7.650;2024-01-15T07:08:07;4.80;74.30
33007;DHT22;19361;51.598;7.650;2024-01-15T07:13:08;4.80;73.90
33007;DHT22;19361;51.598;7.650;2024-01-15T07:18:09;4.80;73.90
33007;DHT22;19361;51.598;7.650;2024-01-15T07:23:10;4.80;73.90
33007;DHT22;19361;51.598;7.650;2024-01-15T07:28:10;4.80;74.00
33007;DHT22;19361;51.598;7.650;2024-01-15T07:33:11;4.80;73.90
33007;DHT22;19361;51.598;7.650;2024-01-15T07:38:12;4.80;73.90
33007;DHT22;19361;51.598;7.650;2024-01-15T07:43:13;4.80;73.90
33007;DHT22;19361;51.598;7.650;2024-01-15T07:48:14;4.80;73.90
33007;DHT22;19361;51.598;7.650;2024-01-15T07:53:14;4.80;73.90
33007;DHT22;19361;51.598;7.650;2024-01-15T07:58:15;4.90;74.00
33007;DHT22;19361;51.598;7.650;2024-01-15T08:03:16;4.90;73.90
33007;DHT22;19361;51.598;7.650;2024-01-15T08:08:16;4.90;73.90
33007;DHT22;19361;51.598;7.650;2024-01-15T08:13:17;4.90;73.70
33007;DHT22;19361;51.598;7.650;2024-01-15T08:18:18;4.90;73.50
33007;DHT22;19361;51.598;7.650;2024-01-15T08:23:18;4.90;73.50
33007;DHT22;19361;51.598;7.650;2024-01-15T08:28:20;4.80;73.60
33007;DHT22;19361;51.598;7.650;2024-01-15T08:33:20;4.80;73.80
33007;DHT22;19361;51.598;7.650;2024-01-15T08:38:21;4.80;73.90
33007;DHT22;19361;51.598;7.650;2024-01-15T08:43:22;4.80;74.00
33007;DHT22;19361;51.598;7.650;2024-01-15T08:48:23;4.80;74.20
33007;DHT22;19361;51.598;7.650;2024-01-15T08:53:23;4.80;74.20
33007;DHT22;19361;51.598;7.650;2024-01-15T08:58:24;4.80;74.30
33007;DHT22;19361;51.598;7.650;2024-01-15T09:03:25;4.80;74.30
33007;DHT22;19361;51.598;7.650;2024-01-15T09:08:26;4.80;74.40
33007;DHT22;19361;51.598;7.650;2024-01-15T09:13:28;4.70;74.40
33007;DHT22;19361;51.598;7.650;2024-01-15T09:18:28;4.80;74.50
33007;DHT22;19361;51.598;7.650;2024-01-15T09:23:30;4.80;74.50
33007;DHT22;19361;51.598;7.650;2024-01-15T09:28:30;4.80;74.50
33007;DHT22;19361;51.598;7.650;2024-01-15T09:33:31;4.80;74.60
33007;DHT22;19361;51.598;7.650;2024-01-15T09:38:32;4.80;74.70
33007;DHT22;19361;51.598;7.650;2024-01-15T09:43:33;4.80;74.70
33007;DHT22;19361;51.598;7.650;2024-01-15T09:48:34;4.90;74.70
33007;DHT22;19361;51.598;7.650;2024-01-15T09:53:35;4.90;74.80
33007;DHT22;19361;51.598;7.650;2024-01-15T09:58:38;4.90;74.70
33007;DHT22;19361;51.598;7.650;2024-01-15T10:03:39;4.90;74.70
33007;DHT22;19361;51.598;7.650;2024-01-15T10:08:41;4.90;74.70
33007;DHT22;19361;51.598;7.650;2024-01-15T10:13:45;4.90;74.80
33007;DHT22;19361;51.598;7.650;2024-01-15T10:18:46;4.90;74.70
33007;DHT22;19361;51.598;7.650;2024-01-15T10:23:47;5.00;74.70
33007;DHT22;19361;51.598;7.650;2024-01-15T10:28:50;5.00;74.60
33007;DHT22;19361;51.598;7.650;2024-01-15T10:33:53;5.00;74.50
33007;DHT22;19361;51.598;7.650;2024-01-15T10:38:57;5.00;74.40
33007;DHT22;19361;51.598;7.650;2024-01-15T10:43:58;5.10;74.40
33007;DHT22;19361;51.598;7.650;2024-01-15T10:48:59;5.00;74.10
33007;DHT22;19361;51.598;7.650;2024-01-15T10:54:00;5.00;74.10
33007;DHT22;19361;51.598;7.650;2024-01-15T10:59:02;5.00;74.20
33007;DHT22;19361;51.598;7.650;2024-01-15T11:04:04;5.00;74.50
33007;DHT22;19361;51.598;7.650;2024-01-15T11:09:07;5.00;74.40
33007;DHT22;19361;51.598;7.650;2024-01-15T11:14:08;5.00;74.10
33007;DHT22;19361;51.598;7.650;2024-01-15T11:19:09;5.10;74.10
33007;DHT22;19361;51.598;7.650;2024-01-15T11:24:33;5.10;74.40
33007;DHT22;19361;51.598;7.650;2024-01-15T11:29:38;5.10;74.40
33007;DHT22;19361;51.598;7.650;2024-01-15T11:34:58;5.20;74.20
33007;DHT22;19361;51.598;7.650;2024-01-15T11:40:02;5.20;73.80
33007;DHT22;19361;51.598;7.650;2024-01-15T11:45:11;5.20;74.10
33007;DHT22;19361;51.598;7.650;2024-01-15T11:50:11;5.30;74.30
33007;DHT22;19361;51.598;7.650;2024-01-15T11:55:34;5.30;74.00
33007;DHT22;19361;51.598;7.650;2024-01-15T12:00:42;5.40;73.80
33007;DHT22;19361;51.598;7.650;2024-01-15T12:05:43;5.50;73.30
33007;DHT22;19361;51.598;7.650;2024-01-15T12:10:44;5.50;73.00
33007;DHT22;19361;51.598;7.650;2024-01-15T12:15:46;5.50;72.80
33007;DHT22;19361;51.598;7.650;2024-01-15T12:20:47;5.40;72.30
33007;DHT22;19361;51.598;7.650;2024-01-15T12:25:49;5.40;72.30
33007;DHT22;19361;51.598;7.650;2024-01-15T12:30:49;5.40;72.20
33007;DHT22;19361;51.598;7.650;2024-01-15T12:35:53;5.40;72.30
33007;DHT22;19361;51.598;7.650;2024-01-15T12:40:53;5.40;71.90
33007;DHT22;19361;51.598;7.650;2024-01-15T12:45:55;5.40;71.80
33007;DHT22;19361;51.598;7.650;2024-01-15T12:50:55;5.30;72.10
33007;DHT22;19361;51.598;7.650;2024-01-15T12:55:56;5.30;72.00
33007;DHT22;19361;51.598;7.650;2024-01-15T13:00:57;5.30;72.00
33007;DHT22;19361;51.598;7.650;2024-01-15T13:05:58;5.30;72.10
33007;DHT22;19361;51.598;7.650;2024-01-15T13:10:58;5.30;72.40
33007;DHT22;19361;51.598;7.650;2024-01-15T13:15:59;5.40;72.20
33007;DHT22;19361;51.598;7.650;2024-01-15T13:21:00;5.40;72.10
33007;DHT22;19361;51.598;7.650;2024-01-15T13:26:03;5.40;72.00
33007;DHT22;19361;51.598;7.650;2024-01-15T13:31:03;5.40;71.60
33007;DHT22;19361;51.598;7.650;2024-01-15T13:36:05;5.40;71.50
33007;DHT22;19361;51.598;7.650;2024-01-15T13:41:08;5.40;71.30
33007;DHT22;19361;51.598;7.650;2024-01-15T13:46:09;5.40;71.40
33007;DHT22;19361;51.598;7.650;2024-01-15T13:51:10;5.40;71.20
33007;DHT22;19361;51.598;7.650;2024-01-15T13:56:12;5.40;71.50
33007;DHT22;19361;51.598;7.650;2024-01-15T14:01:12;5.40;71.40
33007;DHT22;19361;51.598;7.650;2024-01-15T14:06:13;5.40;71.40
33007;DHT22;19361;51.598;7.650;2024-01-15T14:11:14;5.40;71.10
33007;DHT22;19361;51.598;7.650;2024-01-15T14:16:15;5.40;71.10
33007;DHT22;19361;51.598;7.650;2024-01-15T14:21:15;5.40;71.20
33007;DHT22;19361;51.598;7.650;2024-01-15T14:26:16;5.40;71.10
33007;DHT22;19361;51.598;7.650;2024-01-15T14:31:17;5.40;71.00
33007;DHT22;19361;51.598;7.650;2024-01-15T14:36:17;5.40;71.00
33007;DHT22;19361;51.598;7.650;2024-01-15T14:41:18;5.40;71.00
33007;DHT22;19361;51.598;7.650;2024-01-15T14:46:19;5.40;71.10
33007;DHT22;19361;51.598;7.650;2024-01-15T14:51:22;5.40;71.30
33007;DHT22;19361;51.598;7.650;2024-01-15T14:56:23;5.40;71.30
33007;DHT22;19361;51.598;7.650;2024-01-15T15:01:24;5.40;71.10
33007;DHT22;19361;51.598;7.650;2024-01-15T15:06:25;5.40;71.10
33007;DHT22;19361;51.598;7.650;2024-01-15T15:11:28;5.40;71.10
33007;DHT22;19361;51.598;7.650;2024-01-15T15:16:28;5.30;71.00
33007;DHT22;19361;51.598;7.650;2024-01-15T15:21:30;5.30;71.00
33007;DHT22;19361;51.598;7.650;2024-01-15T15:26:30;5.30;70.90
33007;DHT22;19361;51.598;7.650;2024-01-15T15:31:31;5.20;70.50
33007;DHT22;19361;51.598;7.650;2024-01-15T15:36:32;5.20;70.50
33007;DHT22;19361;51.598;7.650;2024-01-15T15:41:32;5.20;70.70
33007;DHT22;19361;51.598;7.650;2024-01-15T15:46:33;5.20;70.70
33007;DHT22;19361;51.598;7.650;2024-01-15T15:51:34;5.20;70.20
33007;DHT22;19361;51.598;7.650;2024-01-15T15:56:36;5.20;70.30
33007;DHT22;19361;51.598;7.650;2024-01-15T16:01:38;5.10;70.20
33007;DHT22;19361;51.598;7.650;2024-01-15T16:06:39;5.10;70.30
33007;DHT22;19361;51.598;7.650;2024-01-15T16:11:40;5.00;70.30
33007;DHT22;19361;51.598;7.650;2024-01-15T16:16:41;5.00;70.30
33007;DHT22;19361;51.598;7.650;2024-01-15T16:21:42;5.00;70.10
33007;DHT22;19361;51.598;7.650;2024-01-15T16:26:43;4.90;69.70
33007;DHT22;19361;51.598;7.650;2024-01-15T16:31:43;4.80;69.70
33007;DHT22;19361;51.598;7.650;2024-01-15T16:36:44;4.80;69.70
33007;DHT22;19361;51.598;7.650;2024-01-15T16:41:45;4.70;69.70
33007;DHT22;19361;51.598;7.650;2024-01-15T16:46:45;4.60;69.80
33007;DHT22;19361;51.598;7.650;2024-01-15T16:51:46;4.50;69.90
33007;DHT22;19361;51.598;7.650;2024-01-15T16:56:47;4.50;70.00
33007;DHT22;19361;51.598;7.650;2024-01-15T17:01:48;4.40;70.10
33007;DHT22;19361;51.598;7.650;2024-01-15T17:06:48;4.40;70.30
33007;DHT22;19361;51.598;7.650;2024-01-15T17:11:49;4.30;70.80
33007;DHT22;19361;51.598;7.650;2024-01-15T17:16:50;4.30;70.60
33007;DHT22;19361;51.598;7.650;2024-01-15T17:21:50;4.30;70.70
33007;DHT22;19361;51.598;7.650;2024-01-15T17:26:53;4.20;70.80
33007;DHT22;19361;51.598;7.650;2024-01-15T17:31:54;4.30;71.10
33007;DHT22;19361;51.598;7.650;2024-01-15T17:36:54;4.30;71.30
33007;DHT22;19361;51.598;7.650;2024-01-15T17:41:55;4.30;71.20
33007;DHT22;19361;51.598;7.650;2024-01-15T17:46:56;4.40;71.20
33007;DHT22;19361;51.598;7.650;2024-01-15T17:51:56;4.40;71.20
33007;DHT22;19361;51.598;7.650;2024-01-15T17:56:57;4.40;71.40
33007;DHT22;19361;51.598;7.650;2024-01-15T18:01:58;4.40;71.40
33007;DHT22;19361;51.598;7.650;2024-01-15T18:06:59;4.50;71.40
33007;DHT22;19361;51.598;7.650;2024-01-15T18:11:59;4.50;71.20
33007;DHT22;19361;51.598;7.650;2024-01-15T18:17:00;4.50;71.10
33007;DHT22;19361;51.598;7.650;2024-01-15T18:22:01;4.40;71.20
33007;DHT22;19361;51.598;7.650;2024-01-15T18:27:03;4.50;71.50
33007;DHT22;19361;51.598;7.650;2024-01-15T18:32:04;4.50;71.60
33007;DHT22;19361;51.598;7.650;2024-01-15T18:37:05;4.50;71.40
33007;DHT22;19361;51.598;7.650;2024-01-15T18:42:06;4.50;71.40
33007;DHT22;19361;51.598;7.650;2024-01-15T18:47:07;4.50;71.50
33007;DHT22;19361;51.598;7.650;2024-01-15T18:52:08;4.60;71.40
33007;DHT22;19361;51.598;7.650;2024-01-15T18:57:11;4.60;71.20
33007;DHT22;19361;51.598;7.650;2024-01-15T19:02:11;4.60;71.00
33007;DHT22;19361;51.598;7.650;2024-01-15T19:07:12;4.60;71.00
33007;DHT22;19361;51.598;7.650;2024-01-15T19:12:13;4.70;71.00
33007;DHT22;19361;51.598;7.650;2024-01-15T19:17:13;4.70;70.90
33007;DHT22;19361;51.598;7.650;2024-01-15T19:22:14;4.70;70.90
33007;DHT22;19361;51.598;7.650;2024-01-15T19:27:15;4.70;70.90
33007;DHT22;19361;51.598;7.650;2024-01-15T19:32:15;4.70;71.00
33007;DHT22;19361;51.598;7.650;2024-01-15T19:37:16;4.80;71.00
33007;DHT22;19361;51.598;7.650;2024-01-15T19:42:17;4.80;70.80
33007;DHT22;19361;51.598;7.650;2024-01-15T19:47:17;4.80;70.80
33007;DHT22;19361;51.598;7.650;2024-01-15T19:52:18;4.80;70.70
33007;DHT22;19361;51.598;7.650;2024-01-15T19:57:19;4.80;70.80
33007;DHT22;19361;51.598;7.650;2024-01-15T20:02:20;4.80;70.70
33007;DHT22;19361;51.598;7.650;2024-01-15T20:07:20;4.90;70.70
33007;DHT22;19361;51.598;7.650;2024-01-15T20:12:21;4.80;70.50
33007;DHT22;19361;51.598;7.650;2024-01-15T20:17:22;4.80;70.60
33007;DHT22;19361;51.598;7.650;2024-01-15T20:22:22;4.80;70.40
33007;DHT22;19361;51.598;7.650;2024-01-15T20:27:23;4.80;70.30
33007;DHT22;19361;51.598;7.650;2024-01-15T20:32:24;4.80;70.50
33007;DHT22;19361;51.598;7.650;2024-01-15T20:37:24;4.80;70.50
33007;DHT22;19361;51.598;7.650;2024-01-15T20:42:25;4.80;70.60
33007;DHT22;19361;51.598;7.650;2024-01-15T20:47:26;4.80;70.60
33007;DHT22;19361;51.598;7.650;2024-01-15T20:52:27;4.80;70.70
33007;DHT22;19361;51.598;7.650;2024-01-15T20:57:27;4.80;70.70
33007;DHT22;19361;51.598;7.650;2024-01-15T21:02:28;4.80;70.60
33007;DHT22;19361;51.598;7.650;2024-01-15T21:07:29;4.80;70.60
33007;DHT22;19361;51.598;7.650;2024-01-15T21:12:29;4.80;70.50
33007;DHT22;19361;51.598;7.650;2024-01-15T21:17:30;4.80;70.60
33007;DHT22;19361;51.598;7.650;2024-01-15T21:22:32;4.80;70.50
33007;DHT22;19361;51.598;7.650;2024-01-15T21:27:33;4.80;70.60
33007;DHT22;19361;51.598;7.650;2024-01-15T21:32:33;4.80;70.60
33007;DHT22;19361;51.598;7.650;2024-01-15T21:37:34;4.70;70.50
33007;DHT22;19361;51.598;7.650;2024-01-15T21:42:35;4.70;70.50
33007;DHT22;19361;51.598;7.650;2024-01-15T21:47:36;4.70;70.30
33007;DHT22;19361;51.598;7.650;2024-01-15T21:52:37;4.70;70.40
33007;DHT22;19361;51.598;7.650;2024-01-15T21:57:38;4.70;70.50
33007;DHT22;19361;51.598;7.650;2024-01-15T22:02:40;4.70;70.50
33007;DHT22;19361;51.598;7.650;2024-01-15T22:07:41;4.70;70.60
33007;DHT22;19361;51.598;7.650;2024-01-15T22:12:43;4.60;70.60
33007;DHT22;19361;51.598;7.650;2024-01-15T22:17:44;4.60;70.60
33007;DHT22;19361;51.598;7.650;2024-01-15T22:22:45;4.60;70.60
33007;DHT22;19361;51.598;7.650;2024-01-15T22:27:45;4.70;70.60
33007;DHT22;19361;51.598;7.650;2024-01-15T22:32:46;4.60;70.40
33007;DHT22;19361;51.598;7.650;2024-01-15T22:37:47;4.60;70.40
33007;DHT22;19361;51.598;7.650;2024-01-15T22:42:48;4.60;70.50
33007;DHT22;19361;51.598;7.650;2024-01-15T22:47:48;4.60;70.50
33007;DHT22;19361;51.598;7.650;2024-01-15T22:52:49;4.60;70.50
33007;DHT22;19361;51.598;7.650;2024-01-15T22:57:51;4.60;70.60
33007;DHT22;19361;51.598;7.650;2024-01-15T23:02:52;4.60;70.60
33007;DHT22;19361;51.598;7.650;2024-01-15T23:07:57;4.60;70.60
33007;DHT22;19361;51.598;7.650;2024-01-15T23:12:58;4.60;70.70
33007;DHT22;19361;51.598;7.650;2024-01-15T23:17:58;4.60;70.70
33007;DHT22;19361;51.598;7.650;2024-01-15T23:22:59;4.60;70.50
33007;DHT22;19361;51.598;7.650;2024-01-15T23:28:01;4.60;70.50
33007;DHT22;19361;51.598;7.650;2024-01-15T23:33:02;4.50;70.50
33007;DHT22;19361;51.598;7.650;2024-01-15T23:38:02;4.50;70.70
33007;DHT22;19361;51.598;7.650;2024-01-15T23:43:03;4.50;70.70
33007;DHT22;19361;51.598;7.650;2024-01-15T23:48:04;4.50;70.80
33007;DHT22;19361;51.598;7.650;2024-01-15T23:53:05;4.50;70.90
33007;DHT22;19361;51.598;7.650;2024-01-15T23:58:06;4.40;71.00
